Nearby METAR Reports

 

KSJC - San Jose, California, USA
Distance from station: NO 14km
Update: 25/09/2021 06:53
Meestal bewolkt
Meestal bewolkt
 Wind van NNW
Wind: NNW 9 km/h
Temperatuur: 17°C
Dauwpunt: 13°C
Vochtigheid: 77%
Barometer: 1014.2 hPa
Clouds: Meestal bewolkt
Visibility: 16 km
Cloud details: Few Clouds 914 m
Gedeeltelijk bewolkt 1524 m
Meestal bewolkt 1981 m
2021/09/25 04:53 KSJC 250453Z 33005KT 10SM FEW030 SCT050 BKN065 17/13 A2995 RMK AO2 SLP141 FU FEW030 FU SCT050 FU BKN065 T01670133
KNUQ - Moffett Nas/Mtn, California, USA
Distance from station: N 14km
Update: 22/08/2021 13:40
NOT Current
Zwaar bewolkt
Zwaar bewolkt
 Wind van ZZO
Wind: ZZO 11 km/h
Temperatuur: 16°C
Dauwpunt: 12°C
Vochtigheid: 77%
Barometer: 1009.8 hPa
Clouds: Zwaar bewolkt
Visibility: 16 km
Cloud details: Zwaar bewolkt 549 m
2021/08/22 11:40 KNUQ 221140Z AUTO 16006KT 10SM OVC018 16/12 A2982 RMK AO2
 
KPAO - Palo Alto, California, USA
Distance from station: NNW 23km
Update: 25/09/2021 01:47
NOT Current
Helder
Helder
 Wind van NW
Wind: NW 19 km/h
Temperatuur: 22°C
Dauwpunt: 14°C
Vochtigheid: 61%
Barometer: 1011.9 hPa
Clouds: Helder
Visibility: 16 km
2021/09/24 23:47 KPAO 242347Z 32010KT 10SM SKC 22/14 A2988
KRHV - San Jose/Reid, California, USA
Distance from station: ONO 19km
Update: 25/09/2021 06:47
Few Clouds
Few Clouds
 Wind van WNW
Wind: WNW 7 km/h
Temperatuur: 18°C
Dauwpunt: 14°C
Vochtigheid: 78%
Barometer: 1014.6 hPa
Clouds: Few Clouds
Visibility: 16 km
Cloud details: Few Clouds 914 m
2021/09/25 04:47 KRHV 250447Z 30004KT 10SM FEW030 18/14 A2996 RMK LAST
 
KOAK - Oakland, California, USA
Distance from station: NNW 50km
Update: 25/09/2021 06:53
Meestal bewolkt
Meestal bewolkt
 Wind van NW
Wind: NW 15 km/h
Temperatuur: 16°C
Dauwpunt: 13°C
Vochtigheid: 83%
Barometer: 1014.6 hPa
Clouds: Meestal bewolkt
Visibility: 16 km
Cloud details: Few Clouds 122 m
Gedeeltelijk bewolkt 213 m
Meestal bewolkt 4572 m
2021/09/25 04:53 KOAK 250453Z 31008KT 10SM FEW004 SCT007 BKN150 16/13 A2996 RMK AO2 SLP143 T01560133
KSQL - San Carlos Airpo, California, USA
Distance from station: NW 34km
Update: 25/09/2021 07:15
Helder
Helder
 Wind van calm
Wind: Kalm
Temperatuur: 16°C
Dauwpunt: 13°C
Vochtigheid: 83%
Barometer: 1014.6 hPa
Clouds: Helder
Visibility: 16 km
2021/09/25 05:15 KSQL 250515Z AUTO 00000KT 10SM CLR 16/13 A2996 RMK AO2
 
KSFO - San Francisco, California, USA
Distance from station: NW 49km
Update: 25/09/2021 06:56
Few Clouds
Few Clouds
 Wind van WNW
Wind: WNW 19 km/h
Temperatuur: 14°C
Dauwpunt: 13°C
Vochtigheid: 94%
Barometer: 1014.2 hPa
Clouds: Few Clouds
Visibility: 16 km
Cloud details: Few Clouds 61 m
2021/09/25 04:56 KSFO 250456Z 30010KT 10SM FEW002 14/13 A2995 RMK AO2 SLP141 T01440128
KE16 - San Martin, California, USA
Distance from station: OZO 43km
Update: 25/09/2021 07:15
Zwaar bewolkt
Zwaar bewolkt
 Wind van OZO
Wind: OZO 7 km/h
Temperatuur: 15°C
Dauwpunt: 13°C
Vochtigheid: 88%
Barometer: 1015.6 hPa
Clouds: Zwaar bewolkt
Visibility: 16 km
Cloud details: Zwaar bewolkt 2134 m
2021/09/25 05:15 KE16 250515Z AUTO 12004KT 10SM OVC070 15/13 A2999 RMK AO2 PWINO PNO
 
KWVI - Watsonville, California, USA
Distance from station: ZZO 44km
Update: 25/09/2021 06:53
Zwaar bewolkt
Zwaar bewolkt
 Wind van WNW
Wind: WNW 6 km/h
Temperatuur: 14°C
Dauwpunt: 13°C
Vochtigheid: 94%
Barometer: 1015.6 hPa
Clouds: Zwaar bewolkt
Visibility: 14 km
Cloud details: Zwaar bewolkt 122 m
2021/09/25 04:53 KWVI 250453Z AUTO 29003KT 9SM OVC004 14/13 A2999 RMK AO2 SLP155 T01440133
KHAF - Half Moon Bay, California, USA
Distance from station: WNW 50km
Update: 25/09/2021 07:15
Mist, Zwaar bewolkt
Mist, Zwaar bewolkt
 Wind van ZZO
Wind: ZZO 9 km/h
Temperatuur: 13°C
Dauwpunt: 13°C
Vochtigheid: 100%
Barometer: 1015.2 hPa
Overzicht: Mist
Clouds: Zwaar bewolkt
Visibility: 2.8 km
Cloud details: Zwaar bewolkt 91 m
2021/09/25 05:15 KHAF 250515Z AUTO 15005KT 1 3/4SM BR OVC003 13/13 A2998 RMK AO2 PWINO
 
KHWD - Hayward, California, USA
Distance from station: N 44km
Update: 25/09/2021 06:54
Helder
Helder
 Wind van NW
Wind: NW 7 km/h
Temperatuur: 15°C
Dauwpunt: 12°C
Vochtigheid: 82%
Barometer: 1014.2 hPa
Clouds: Helder
Visibility: 16 km
2021/09/25 04:54 KHWD 250454Z AUTO 32004KT 10SM CLR 15/12 A2995 RMK AO2 SLP151 T01500122
KLVK - Livermore, California, USA
Distance from station: NNO 51km
Update: 25/09/2021 06:53
Helder
Helder
 Wind van calm
Wind: Kalm
Temperatuur: 21°C
Dauwpunt: 8°C
Vochtigheid: 43%
Barometer: 1013.5 hPa
Clouds: Helder
Visibility: 16 km
2021/09/25 04:53 KLVK 250453Z 00000KT 10SM CLR 21/08 A2993 RMK AO2 SLP130 T02060078